createdAt,value
2018-06-21T00:00:59.884Z,10.43
2018-06-21T00:03:27.672Z,11.33
2018-06-21T00:05:55.098Z,11.77
2018-06-21T00:08:22.610Z,11.50
2018-06-21T00:10:50.113Z,10.80
2018-06-21T00:13:17.597Z,11.53
2018-06-21T00:15:45.097Z,10.80
2018-06-21T00:18:12.569Z,11.00
2018-06-21T00:20:40.067Z,11.50
2018-06-21T00:23:07.533Z,12.77
2018-06-21T00:25:35.060Z,13.50
2018-06-21T00:28:02.564Z,13.50
2018-06-21T00:30:30.081Z,15.43
2018-06-21T00:32:57.561Z,15.73
2018-06-21T00:35:25.050Z,15.10
2018-06-21T00:37:52.752Z,15.23
2018-06-21T00:40:20.236Z,13.33
2018-06-21T00:42:47.694Z,12.07
2018-06-21T00:45:15.184Z,12.20
2018-06-21T00:47:42.706Z,10.17
2018-06-21T00:50:10.206Z,9.67
2018-06-21T00:52:37.692Z,8.93
2018-06-21T00:55:05.256Z,8.20
2018-06-21T00:57:32.743Z,9.00
2018-06-21T01:00:00.232Z,8.97
2018-06-21T01:02:27.735Z,8.20
2018-06-21T01:04:55.215Z,8.70
2018-06-21T01:07:22.725Z,8.13
2018-06-21T01:09:50.185Z,9.07
2018-06-21T01:12:20.483Z,8.77
2018-06-21T01:14:48.196Z,8.43
2018-06-21T01:17:15.705Z,8.77
2018-06-21T01:19:43.231Z,8.83
2018-06-21T01:22:10.741Z,8.50
2018-06-21T01:24:38.221Z,7.53
2018-06-21T01:27:05.713Z,8.23
2018-06-21T01:29:33.194Z,7.47
2018-06-21T01:32:00.754Z,7.87
2018-06-21T01:34:28.273Z,7.90
2018-06-21T01:36:55.845Z,8.70
2018-06-21T01:39:23.321Z,8.10
2018-06-21T01:41:50.801Z,7.97
2018-06-21T01:44:18.299Z,8.70
2018-06-21T01:46:45.825Z,7.67
2018-06-21T01:49:13.400Z,7.13
2018-06-21T01:51:40.933Z,7.57
2018-06-21T01:54:08.420Z,7.00
2018-06-21T01:56:35.992Z,8.33
2018-06-21T01:59:03.576Z,6.97
2018-06-21T02:01:31.078Z,6.80
2018-06-21T02:03:58.617Z,6.70
2018-06-21T02:06:26.096Z,6.63
2018-06-21T02:08:53.813Z,6.73
2018-06-21T02:11:21.268Z,6.70
2018-06-21T02:13:48.779Z,6.77
2018-06-21T02:16:16.232Z,7.40
2018-06-21T02:18:43.774Z,7.40
2018-06-21T02:21:11.257Z,7.50
2018-06-21T02:23:38.790Z,8.40
2018-06-21T02:26:06.279Z,7.67
2018-06-21T02:28:33.704Z,7.70
2018-06-21T02:31:01.218Z,8.57
2018-06-21T02:33:28.697Z,7.53
2018-06-21T02:35:56.198Z,10.17
2018-06-21T02:38:23.713Z,8.30
2018-06-21T02:40:51.189Z,8.80
2018-06-21T02:43:18.723Z,8.93
2018-06-21T02:45:46.191Z,8.23
2018-06-21T02:48:13.684Z,9.57
2018-06-21T02:50:41.242Z,10.13
2018-06-21T02:53:08.740Z,10.57
2018-06-21T02:55:36.248Z,11.10
2018-06-21T02:58:03.745Z,11.17
2018-06-21T03:00:31.360Z,11.20
2018-06-21T03:02:58.825Z,12.00
2018-06-21T03:05:26.317Z,9.37
2018-06-21T03:07:53.793Z,10.53
2018-06-21T03:10:21.289Z,10.67
2018-06-21T03:12:48.785Z,9.20
2018-06-21T03:15:16.307Z,10.60
2018-06-21T03:17:43.765Z,10.07
2018-06-21T03:20:11.259Z,10.07
2018-06-21T03:22:38.688Z,10.40
2018-06-21T03:25:06.210Z,9.57
2018-06-21T03:27:33.676Z,9.43
2018-06-21T03:30:01.165Z,10.90
2018-06-21T03:32:28.669Z,10.47
2018-06-21T03:34:56.168Z,10.90
2018-06-21T03:37:23.660Z,11.17
2018-06-21T03:39:51.156Z,11.37
2018-06-21T03:42:18.624Z,11.23
2018-06-21T03:44:46.108Z,11.43
2018-06-21T03:47:13.595Z,10.67
2018-06-21T03:49:41.112Z,11.53
2018-06-21T03:52:08.653Z,11.60
2018-06-21T03:54:36.110Z,10.20
2018-06-21T03:57:03.628Z,10.40
2018-06-21T03:59:31.167Z,10.10
2018-06-21T04:01:58.937Z,10.30
2018-06-21T04:04:26.349Z,11.80
2018-06-21T04:06:53.829Z,11.37
2018-06-21T04:09:21.309Z,10.80
2018-06-21T04:11:48.819Z,11.03
2018-06-21T04:14:16.322Z,10.30
2018-06-21T04:16:43.834Z,12.50
2018-06-21T04:19:11.314Z,10.27
2018-06-21T04:21:38.823Z,10.73
2018-06-21T04:24:06.339Z,10.80
2018-06-21T04:26:34.485Z,11.70
2018-06-21T04:29:02.065Z,10.43
2018-06-21T04:31:29.571Z,11.40
2018-06-21T04:33:57.061Z,12.17
2018-06-21T04:36:24.640Z,11.27
2018-06-21T04:38:52.121Z,10.73
2018-06-21T04:41:20.572Z,10.27
2018-06-21T04:43:48.065Z,10.13
2018-06-21T04:46:15.575Z,9.83
2018-06-21T04:48:43.101Z,11.13
2018-06-21T04:51:10.633Z,10.07
2018-06-21T04:53:38.148Z,10.80
2018-06-21T04:56:05.745Z,9.67
2018-06-21T04:58:33.261Z,9.90
2018-06-21T05:01:01.148Z,10.67
2018-06-21T05:03:28.625Z,11.00
2018-06-21T05:05:56.156Z,12.30
2018-06-21T05:08:23.676Z,12.80
2018-06-21T05:10:51.162Z,13.40
2018-06-21T05:13:18.729Z,13.87
2018-06-21T05:15:46.224Z,14.90
2018-06-21T05:18:13.713Z,17.47
2018-06-21T05:20:41.188Z,17.37
2018-06-21T05:23:08.701Z,20.00
2018-06-21T05:25:36.206Z,23.83
2018-06-21T05:28:03.760Z,23.10
2018-06-21T05:30:31.281Z,21.10
2018-06-21T05:32:58.751Z,24.73
2018-06-21T05:35:26.253Z,31.67
2018-06-21T05:37:53.757Z,29.90
2018-06-21T05:40:29.703Z,30.63
2018-06-21T05:42:57.586Z,31.73
2018-06-21T05:45:25.064Z,34.20
2018-06-21T05:47:52.551Z,37.00
2018-06-21T05:50:20.087Z,36.20
2018-06-21T05:52:47.602Z,32.00
2018-06-21T05:55:15.077Z,35.30
2018-06-21T05:57:42.576Z,34.57
2018-06-21T06:00:10.468Z,37.57
2018-06-21T06:02:38.012Z,38.10
2018-06-21T06:05:05.564Z,34.17
2018-06-21T06:07:33.025Z,32.70
2018-06-21T06:10:00.564Z,33.97
2018-06-21T06:12:28.093Z,30.93
2018-06-21T06:14:55.640Z,31.43
2018-06-21T06:17:23.129Z,33.10
2018-06-21T06:19:50.647Z,32.20
2018-06-21T06:22:18.108Z,30.87
2018-06-21T06:24:45.641Z,28.43
2018-06-21T06:27:13.138Z,18.63
2018-06-21T06:29:40.648Z,18.13
2018-06-21T06:32:08.124Z,22.27
2018-06-21T06:34:35.641Z,24.90
2018-06-21T06:37:03.145Z,19.47
2018-06-21T06:39:30.666Z,16.30
2018-06-21T06:41:58.153Z,17.67
2018-06-21T06:44:25.647Z,17.20
2018-06-21T06:46:53.798Z,18.47
2018-06-21T06:49:21.312Z,18.53
2018-06-21T06:51:48.805Z,18.87
2018-06-21T06:54:16.345Z,19.10
2018-06-21T06:56:43.796Z,19.80
2018-06-21T06:59:11.300Z,19.00
2018-06-21T07:01:38.823Z,17.70
2018-06-21T07:04:06.315Z,17.33
2018-06-21T07:06:33.802Z,16.60
2018-06-21T07:09:01.293Z,16.70
2018-06-21T07:11:28.871Z,17.97
2018-06-21T07:13:57.304Z,18.50
2018-06-21T07:16:25.336Z,17.37
2018-06-21T07:18:52.821Z,19.97
2018-06-21T07:21:20.349Z,17.30
2018-06-21T07:23:47.832Z,16.80
2018-06-21T07:26:15.313Z,19.33
2018-06-21T07:28:42.846Z,20.20
2018-06-21T07:31:10.350Z,16.97
2018-06-21T07:33:37.852Z,17.13
2018-06-21T07:36:05.356Z,18.17
2018-06-21T07:38:32.844Z,17.03
2018-06-21T07:41:00.340Z,16.50
2018-06-21T07:43:27.823Z,17.33
2018-06-21T07:45:55.304Z,17.00
2018-06-21T07:48:22.725Z,15.50
2018-06-21T07:50:51.273Z,14.40
2018-06-21T07:53:18.732Z,17.27
2018-06-21T07:55:46.232Z,16.03
2018-06-21T07:58:13.785Z,17.93
2018-06-21T08:00:41.266Z,17.50
2018-06-21T08:03:08.778Z,17.07
2018-06-21T08:05:36.282Z,15.87
2018-06-21T08:08:03.800Z,8.60
2018-06-21T08:10:31.300Z,5.60
2018-06-21T08:12:59.092Z,4.77
2018-06-21T08:15:26.581Z,6.40
2018-06-21T08:17:54.092Z,3.60
2018-06-21T08:20:21.620Z,4.97
2018-06-21T08:22:49.100Z,2.83
2018-06-21T08:25:16.581Z,3.63
2018-06-21T08:27:44.057Z,3.40
2018-06-21T08:30:11.569Z,4.27
2018-06-21T08:32:39.203Z,4.90
2018-06-21T08:35:06.718Z,4.87
2018-06-21T08:37:34.271Z,5.47
2018-06-21T08:40:01.812Z,4.50
2018-06-21T08:42:29.425Z,5.20
2018-06-21T08:44:56.904Z,4.20
2018-06-21T08:47:24.509Z,5.33
2018-06-21T08:49:52.052Z,4.87
2018-06-21T08:52:19.579Z,2.80
2018-06-21T08:54:47.203Z,4.30
2018-06-21T08:57:14.875Z,4.40
2018-06-21T08:59:49.033Z,3.93
2018-06-21T09:02:16.525Z,3.73
2018-06-21T09:04:44.026Z,3.60
2018-06-21T09:07:11.533Z,2.93
2018-06-21T09:09:39.052Z,3.23
2018-06-21T09:12:06.577Z,3.10
2018-06-21T09:14:34.063Z,2.97
2018-06-21T09:17:01.521Z,3.00
2018-06-21T09:19:29.013Z,3.30
2018-06-21T09:21:56.501Z,2.90
2018-06-21T09:24:23.986Z,3.37
2018-06-21T09:26:51.429Z,4.10
2018-06-21T09:29:18.942Z,3.73
2018-06-21T09:31:46.514Z,3.20
2018-06-21T09:34:14.033Z,3.50
2018-06-21T09:36:42.817Z,2.43
2018-06-21T09:39:16.502Z,3.53
2018-06-21T09:41:49.970Z,3.23
2018-06-21T09:44:23.145Z,3.03
2018-06-21T09:46:56.424Z,3.43
2018-06-21T09:49:29.740Z,2.93
2018-06-21T09:51:58.585Z,2.17
2018-06-21T09:54:26.018Z,2.10
2018-06-21T09:56:53.531Z,2.70
2018-06-21T09:59:21.025Z,2.40
2018-06-21T10:01:48.508Z,3.60
2018-06-21T10:04:16.029Z,3.23
2018-06-21T10:06:43.543Z,3.13
2018-06-21T10:09:11.001Z,3.60
2018-06-21T10:11:38.501Z,2.40
2018-06-21T10:14:05.972Z,3.40
2018-06-21T10:16:33.544Z,4.20
2018-06-21T10:19:01.128Z,3.03
2018-06-21T10:21:28.613Z,2.70
2018-06-21T10:23:56.113Z,2.73
2018-06-21T10:26:23.618Z,3.60
2018-06-21T10:28:51.113Z,2.80
2018-06-21T10:31:18.632Z,2.80
2018-06-21T10:33:46.128Z,2.23
2018-06-21T10:36:13.613Z,4.07
2018-06-21T10:38:41.071Z,3.07
2018-06-21T10:41:08.585Z,2.60
2018-06-21T10:43:36.161Z,2.47
2018-06-21T10:46:03.664Z,2.83
2018-06-21T10:48:31.178Z,3.00
2018-06-21T10:50:58.688Z,3.77
2018-06-21T10:53:26.156Z,3.33
2018-06-21T10:55:53.703Z,3.27
2018-06-21T10:58:21.204Z,1.97
2018-06-21T11:00:48.697Z,2.80
2018-06-21T11:03:16.234Z,2.40
2018-06-21T11:05:43.689Z,3.40
2018-06-21T11:08:11.165Z,3.10
2018-06-21T11:10:38.701Z,2.60
2018-06-21T11:13:06.280Z,2.80
2018-06-21T11:15:33.740Z,2.50
2018-06-21T11:18:01.242Z,2.43
2018-06-21T11:20:28.733Z,2.10
2018-06-21T11:22:56.296Z,1.67
2018-06-21T11:25:23.850Z,2.00
2018-06-21T11:27:51.428Z,1.53
2018-06-21T11:30:18.918Z,1.10
2018-06-21T11:32:46.403Z,1.67
2018-06-21T11:35:13.940Z,1.70
2018-06-21T11:37:41.470Z,1.43
2018-06-21T11:40:08.961Z,1.27
2018-06-21T11:42:36.438Z,1.60
2018-06-21T11:45:04.072Z,2.10
2018-06-21T11:47:31.601Z,1.90
2018-06-21T11:49:59.088Z,1.77
2018-06-21T11:52:26.589Z,1.33
2018-06-21T11:54:54.078Z,1.50
2018-06-21T11:57:21.652Z,1.65
2018-06-21T11:59:49.154Z,1.53
2018-06-21T12:02:16.729Z,1.50
2018-06-21T12:04:44.264Z,1.50
2018-06-21T12:07:12.109Z,2.13
2018-06-21T12:09:39.613Z,1.77
2018-06-21T12:12:07.266Z,1.50
2018-06-21T12:14:34.822Z,1.20
2018-06-21T12:17:02.321Z,1.27
2018-06-21T12:19:29.845Z,1.80
2018-06-21T12:21:57.330Z,1.10
2018-06-21T12:24:25.632Z,0.97
2018-06-21T12:26:53.120Z,1.23
2018-06-21T12:29:20.612Z,1.60
2018-06-21T12:31:48.083Z,2.00
2018-06-21T12:34:15.622Z,1.40
2018-06-21T12:36:43.245Z,1.32
2018-06-21T12:39:10.741Z,1.60
2018-06-21T12:41:38.222Z,1.17
2018-06-21T12:44:05.717Z,1.00
2018-06-21T12:46:33.178Z,1.50
2018-06-21T12:49:00.754Z,1.00
2018-06-21T12:51:28.219Z,1.27
2018-06-21T12:53:55.749Z,1.53
2018-06-21T12:56:24.105Z,1.33
2018-06-21T12:58:52.935Z,1.70
2018-06-21T13:01:20.433Z,1.40
2018-06-21T13:03:47.951Z,1.47
2018-06-21T13:06:15.469Z,1.30
2018-06-21T13:08:54.210Z,2.00
2018-06-21T13:11:35.674Z,1.43
2018-06-21T13:14:14.636Z,1.63
2018-06-21T13:16:42.736Z,1.27
2018-06-21T13:19:10.309Z,0.90
2018-06-21T13:21:37.804Z,0.70
2018-06-21T13:24:05.548Z,1.87
2018-06-21T13:26:33.208Z,0.70
2018-06-21T13:29:00.705Z,0.90
2018-06-21T13:31:28.248Z,1.47
2018-06-21T13:33:55.753Z,0.80
2018-06-21T13:36:23.302Z,1.70
2018-06-21T13:38:51.009Z,1.83
2018-06-21T13:41:18.816Z,1.00
2018-06-21T13:43:46.361Z,1.47
2018-06-21T13:46:13.889Z,1.77
2018-06-21T13:48:41.604Z,1.67
2018-06-21T13:51:09.392Z,1.40
2018-06-21T13:53:36.865Z,1.67
2018-06-21T13:56:06.753Z,1.83
2018-06-21T13:58:34.235Z,1.60
2018-06-21T14:01:02.066Z,1.17
2018-06-21T14:03:29.454Z,1.40
2018-06-21T14:05:56.925Z,1.67
2018-06-21T14:08:25.057Z,1.20
2018-06-21T14:10:52.503Z,1.47
2018-06-21T14:13:20.531Z,1.53
2018-06-21T14:15:51.028Z,1.40
2018-06-21T14:18:18.681Z,1.40
2018-06-21T14:20:46.278Z,1.30
2018-06-21T14:23:13.678Z,0.90
2018-06-21T14:25:41.305Z,1.50
2018-06-21T14:28:09.022Z,1.73
2018-06-21T14:30:41.859Z,1.57
2018-06-21T14:33:09.432Z,1.47
2018-06-21T14:35:36.938Z,0.90
2018-06-21T14:38:04.495Z,0.90
2018-06-21T14:40:32.022Z,1.50
2018-06-21T14:42:59.873Z,1.73
2018-06-21T14:45:27.337Z,1.20
2018-06-21T14:47:54.976Z,1.30
2018-06-21T14:50:22.746Z,1.17
2018-06-21T14:52:50.500Z,1.10
2018-06-21T14:55:18.012Z,0.90
2018-06-21T14:57:45.513Z,1.10
2018-06-21T15:00:13.072Z,0.70
2018-06-21T15:02:40.842Z,0.97
2018-06-21T15:05:08.421Z,1.20
2018-06-21T15:07:35.896Z,0.83
2018-06-21T15:10:03.448Z,1.00
2018-06-21T15:12:31.145Z,1.27
2018-06-21T15:14:58.866Z,1.07
2018-06-21T15:17:26.374Z,1.07
2018-06-21T15:19:53.936Z,0.70
2018-06-21T15:22:21.480Z,0.80
2018-06-21T15:24:49.361Z,0.70
2018-06-21T15:27:16.940Z,0.90
2018-06-21T15:29:44.432Z,0.97
2018-06-21T15:32:11.921Z,1.60
2018-06-21T15:34:40.249Z,1.17
2018-06-21T15:37:07.596Z,1.37
2018-06-21T15:39:35.157Z,2.10
2018-06-21T15:42:02.649Z,0.83
2018-06-21T15:44:30.464Z,0.80
2018-06-21T15:46:58.071Z,1.37
2018-06-21T15:49:25.603Z,1.00
2018-06-21T15:51:53.211Z,0.70
2018-06-21T15:54:21.149Z,0.50
2018-06-21T15:56:48.797Z,1.00
2018-06-21T15:59:16.336Z,0.80
2018-06-21T16:01:43.821Z,0.93
2018-06-21T16:04:11.357Z,1.70
2018-06-21T16:06:38.901Z,1.37
2018-06-21T16:09:07.138Z,0.73
2018-06-21T16:11:34.640Z,0.80
2018-06-21T16:14:02.141Z,0.97
2018-06-21T16:16:29.672Z,1.17
2018-06-21T16:18:57.142Z,1.30
2018-06-21T16:21:24.623Z,1.40
2018-06-21T16:23:52.112Z,2.00
2018-06-21T16:26:19.685Z,1.53
2018-06-21T16:28:47.147Z,1.00
2018-06-21T16:31:14.678Z,0.87
2018-06-21T16:33:42.256Z,1.00
2018-06-21T16:36:09.784Z,0.70
2018-06-21T16:38:37.304Z,0.73
2018-06-21T16:41:05.208Z,0.90
2018-06-21T16:43:32.681Z,1.43
2018-06-21T16:46:00.188Z,0.80
2018-06-21T16:48:27.756Z,0.45
2018-06-21T16:50:55.332Z,0.60
2018-06-21T16:53:22.743Z,0.80
2018-06-21T16:55:50.289Z,0.60
2018-06-21T16:58:17.788Z,0.53
2018-06-21T17:00:45.378Z,0.80
2018-06-21T17:03:12.848Z,0.70
2018-06-21T17:05:40.437Z,0.80
2018-06-21T17:08:09.080Z,1.50
2018-06-21T17:10:36.609Z,1.27
2018-06-21T17:13:04.117Z,0.55
2018-06-21T17:15:31.620Z,1.20
2018-06-21T17:17:59.138Z,0.60
2018-06-21T17:20:26.624Z,1.03
2018-06-21T17:22:54.124Z,0.70
2018-06-21T17:25:21.660Z,0.50
2018-06-21T17:27:49.276Z,0.60
2018-06-21T17:30:16.764Z,0.77
2018-06-21T17:32:44.285Z,0.60
2018-06-21T17:35:11.769Z,0.60
2018-06-21T17:37:39.309Z,1.20
2018-06-21T17:40:06.886Z,0.70
2018-06-21T17:42:34.360Z,0.90
2018-06-21T17:45:01.820Z,1.13
2018-06-21T17:47:29.378Z,1.00
2018-06-21T17:49:56.891Z,0.80
2018-06-21T17:52:25.113Z,1.30
2018-06-21T17:54:52.665Z,0.70
2018-06-21T17:57:20.272Z,1.00
2018-06-21T17:59:48.180Z,1.17
2018-06-21T18:02:15.936Z,1.33
2018-06-21T18:04:43.476Z,1.50
2018-06-21T18:07:11.370Z,1.13
2018-06-21T18:09:39.011Z,1.05
2018-06-21T18:12:07.992Z,0.67
2018-06-21T18:14:35.745Z,1.17
2018-06-21T18:17:03.219Z,0.90
2018-06-21T18:19:30.891Z,0.97
2018-06-21T18:21:58.645Z,0.80
2018-06-21T18:24:26.364Z,0.97
2018-06-21T18:26:53.929Z,0.80
2018-06-21T18:29:21.854Z,1.23
2018-06-21T18:31:49.700Z,0.87
2018-06-21T18:34:17.260Z,1.20
2018-06-21T18:36:45.185Z,1.20
2018-06-21T18:39:13.895Z,1.00
2018-06-21T18:41:42.127Z,1.03
2018-06-21T18:44:09.982Z,1.20
2018-06-21T18:46:38.139Z,1.00
2018-06-21T18:49:06.190Z,1.17
2018-06-21T18:51:34.233Z,0.80
2018-06-21T18:54:02.109Z,1.00
2018-06-21T18:56:30.064Z,1.37
2018-06-21T18:58:57.583Z,1.17
2018-06-21T19:01:25.547Z,1.07
2018-06-21T19:03:53.365Z,1.33
2018-06-21T19:06:26.678Z,2.13
2018-06-21T19:09:00.029Z,1.47
2018-06-21T19:11:33.283Z,1.63
2018-06-21T19:14:01.128Z,1.20
2018-06-21T19:16:29.839Z,1.27
2018-06-21T19:18:57.796Z,1.20
2018-06-21T19:21:25.789Z,1.33
2018-06-21T19:23:56.804Z,1.40
2018-06-21T19:26:24.882Z,1.63
2018-06-21T19:28:52.472Z,1.77
2018-06-21T19:31:20.499Z,1.37
2018-06-21T19:33:48.156Z,1.13
2018-06-21T19:36:15.755Z,1.70
2018-06-21T19:38:49.329Z,1.50
2018-06-21T19:41:17.336Z,1.63
2018-06-21T19:43:45.622Z,2.00
2018-06-21T19:46:13.458Z,1.80
2018-06-21T19:48:41.165Z,2.00
2018-06-21T19:51:09.270Z,1.93
2018-06-21T19:53:37.109Z,1.53
2018-06-21T19:56:04.784Z,1.70
2018-06-21T19:58:32.993Z,1.13
2018-06-21T20:01:00.816Z,1.27
2018-06-21T20:03:28.735Z,1.50
2018-06-21T20:05:56.287Z,1.60
2018-06-21T20:08:24.075Z,2.07
2018-06-21T20:10:57.335Z,2.10
2018-06-21T20:13:25.199Z,1.53
2018-06-21T20:15:53.704Z,1.30
2018-06-21T20:18:28.276Z,1.60
2018-06-21T20:20:56.121Z,1.50
2018-06-21T20:23:23.638Z,1.40
2018-06-21T20:25:51.136Z,1.67
2018-06-21T20:28:18.818Z,1.80
2018-06-21T20:30:46.403Z,1.23
2018-06-21T20:33:14.502Z,1.23
2018-06-21T20:35:42.370Z,1.50
2018-06-21T20:38:10.217Z,1.80
2018-06-21T20:40:38.219Z,2.00
2018-06-21T20:43:06.073Z,1.93
2018-06-21T20:45:34.134Z,1.47
2018-06-21T20:48:01.685Z,2.00
2018-06-21T20:50:29.382Z,1.80
2018-06-21T20:52:57.056Z,2.20
2018-06-21T20:55:24.624Z,1.83
2018-06-21T20:57:52.137Z,1.60
2018-06-21T21:00:20.063Z,1.50
2018-06-21T21:02:47.791Z,1.37
2018-06-21T21:05:16.296Z,1.67
2018-06-21T21:07:44.772Z,2.00
2018-06-21T21:10:13.995Z,1.43
2018-06-21T21:12:41.608Z,1.70
2018-06-21T21:15:10.473Z,1.63
2018-06-21T21:17:38.690Z,1.43
2018-06-21T21:20:07.129Z,1.75
2018-06-21T21:22:35.956Z,1.87
2018-06-21T21:25:03.788Z,0.90
2018-06-21T21:27:31.326Z,1.37
2018-06-21T21:29:59.384Z,1.97
2018-06-21T21:32:27.233Z,1.70
2018-06-21T21:34:55.741Z,2.10
2018-06-21T21:37:23.372Z,1.63
2018-06-21T21:39:51.862Z,2.05
2018-06-21T21:42:19.402Z,2.03
2018-06-21T21:44:46.880Z,1.97
2018-06-21T21:47:14.459Z,1.90
2018-06-21T21:49:41.955Z,2.60
2018-06-21T21:52:09.433Z,1.93
2018-06-21T21:54:36.912Z,1.60
2018-06-21T21:57:04.499Z,2.90
2018-06-21T21:59:32.014Z,2.00
2018-06-21T22:01:59.511Z,2.33
2018-06-21T22:04:26.969Z,1.97
2018-06-21T22:06:54.441Z,1.90
2018-06-21T22:09:21.923Z,1.70
2018-06-21T22:11:49.652Z,2.67
2018-06-21T22:14:17.137Z,1.73
2018-06-21T22:16:44.617Z,2.23
2018-06-21T22:19:12.090Z,1.90
2018-06-21T22:21:39.605Z,2.63
2018-06-21T22:24:07.056Z,2.43
2018-06-21T22:26:34.546Z,2.37
2018-06-21T22:29:02.054Z,2.13
2018-06-21T22:31:29.552Z,1.70
2018-06-21T22:33:57.009Z,3.50
2018-06-21T22:36:24.495Z,2.77
2018-06-21T22:38:51.965Z,1.90
2018-06-21T22:41:19.483Z,2.40
2018-06-21T22:43:46.981Z,2.10
2018-06-21T22:46:14.636Z,2.10
2018-06-21T22:48:42.141Z,2.60
2018-06-21T22:51:09.633Z,3.10
2018-06-21T22:53:37.147Z,2.00
2018-06-21T22:56:04.672Z,2.10
2018-06-21T22:58:32.173Z,3.90
2018-06-21T23:00:59.657Z,2.70
2018-06-21T23:03:27.179Z,2.17
2018-06-21T23:05:54.658Z,2.00
2018-06-21T23:08:22.132Z,3.40
2018-06-21T23:10:49.617Z,2.40
2018-06-21T23:13:17.012Z,2.60
2018-06-21T23:15:44.505Z,2.03
2018-06-21T23:18:18.521Z,2.20
2018-06-21T23:20:45.997Z,1.97
2018-06-21T23:23:13.486Z,2.00
2018-06-21T23:25:40.981Z,2.90
2018-06-21T23:28:08.529Z,1.67
2018-06-21T23:30:36.007Z,2.60
2018-06-21T23:33:03.520Z,2.27
2018-06-21T23:35:30.998Z,2.60
2018-06-21T23:37:58.497Z,3.27
2018-06-21T23:40:25.965Z,2.50
2018-06-21T23:42:53.473Z,1.80
2018-06-21T23:45:20.944Z,2.90
2018-06-21T23:47:48.428Z,2.63
2018-06-21T23:50:15.924Z,2.40
2018-06-21T23:52:43.444Z,2.20
2018-06-21T23:55:10.882Z,2.30
2018-06-21T23:57:38.402Z,2.93
